createdAt,value
2023-03-11T00:01:55.317Z,99405.66
2023-03-11T00:04:36.692Z,99412.91
2023-03-11T00:07:07.385Z,99427.28
2023-03-11T00:09:43.384Z,99424.25
2023-03-11T00:12:10.237Z,99414.91
2023-03-11T00:14:37.058Z,99420.38
2023-03-11T00:17:04.038Z,99421.34
2023-03-11T00:19:30.981Z,99428.97
2023-03-11T00:21:58.282Z,99425.09
2023-03-11T00:24:30.268Z,99418.56
2023-03-11T00:26:57.224Z,99399.59
2023-03-11T00:29:38.935Z,99405.47
2023-03-11T00:32:31.421Z,99409.03
2023-03-11T00:35:01.277Z,99420.38
2023-03-11T00:40:15.631Z,99423.50
2023-03-11T00:42:43.809Z,99419.63
2023-03-11T00:45:16.996Z,99418.97
2023-03-11T00:47:49.294Z,99416.91
2023-03-11T00:50:30.312Z,99402.91
2023-03-11T00:53:06.283Z,99406.31
2023-03-11T00:55:43.679Z,99412.91
2023-03-11T00:58:14.707Z,99427.88
2023-03-11T01:03:36.944Z,99414.25
2023-03-11T01:06:04.190Z,99429.47
2023-03-11T01:08:31.972Z,99426.66
2023-03-11T01:11:10.779Z,99417.28
2023-03-11T01:13:40.515Z,99418.22
2023-03-11T01:16:11.671Z,99421.16
2023-03-11T01:18:41.565Z,99416.44
2023-03-11T01:21:19.730Z,99421.34
2023-03-11T01:24:06.446Z,99409.25
2023-03-11T01:27:23.114Z,99416.72
2023-03-11T01:29:58.717Z,99415.41
2023-03-11T01:32:37.002Z,99409.75
2023-03-11T01:35:03.905Z,99408.44
2023-03-11T01:37:31.254Z,99397.28
2023-03-11T01:40:06.085Z,99389.16
2023-03-11T01:42:33.062Z,99394.47
2023-03-11T01:45:02.740Z,99376.13
2023-03-11T01:47:37.574Z,99381.72
2023-03-11T01:50:10.760Z,99375.56
2023-03-11T01:52:51.071Z,99360.34
2023-03-11T01:55:21.114Z,99362.44
2023-03-11T01:57:51.301Z,99345.41
2023-03-11T02:00:18.404Z,99345.72
2023-03-11T02:02:59.061Z,99337.56
2023-03-11T02:05:33.616Z,99321.78
2023-03-11T02:08:01.634Z,99308.28
2023-03-11T02:10:28.751Z,99302.78
2023-03-11T02:13:04.528Z,99299.19
2023-03-11T02:15:48.989Z,99299.28
2023-03-11T02:18:32.827Z,99311.84
2023-03-11T02:21:18.843Z,99321.16
2023-03-11T02:24:36.979Z,99314.13
2023-03-11T02:27:26.037Z,99313.97
2023-03-11T02:30:00.880Z,99323.38
2023-03-11T02:32:37.316Z,99313.97
2023-03-11T02:35:07.487Z,99312.03
2023-03-11T02:37:36.884Z,99316.78
2023-03-11T02:41:11.435Z,99322.66
2023-03-11T02:43:48.612Z,99329.84
2023-03-11T02:46:26.545Z,99320.00
2023-03-11T02:49:14.578Z,99317.06
2023-03-11T02:51:54.865Z,99309.75
2023-03-11T02:54:33.867Z,99322.16
2023-03-11T02:57:11.754Z,99314.28
2023-03-11T02:59:40.450Z,99320.19
2023-03-11T03:02:09.248Z,99333.59
2023-03-11T03:04:39.146Z,99326.78
2023-03-11T03:07:12.888Z,99328.13
2023-03-11T03:09:53.576Z,99314.69
2023-03-11T03:12:26.117Z,99311.13
2023-03-11T03:14:53.291Z,99306.47
2023-03-11T03:17:28.825Z,99297.13
2023-03-11T03:19:58.751Z,99297.19
2023-03-11T03:22:33.580Z,99291.75
2023-03-11T03:25:20.681Z,99290.97
2023-03-11T03:27:53.654Z,99282.72
2023-03-11T03:30:30.124Z,99290.53
2023-03-11T03:33:07.863Z,99289.38
2023-03-11T03:35:42.943Z,99296.75
2023-03-11T03:38:10.204Z,99299.56
2023-03-11T03:40:37.575Z,99305.63
2023-03-11T03:43:05.056Z,99305.81
2023-03-11T03:45:32.351Z,99307.69
2023-03-11T03:47:59.309Z,99303.91
2023-03-11T03:50:35.036Z,99309.78
2023-03-11T03:53:09.539Z,99315.72
2023-03-11T03:55:53.416Z,99318.28
2023-03-11T03:58:41.299Z,99311.50
2023-03-11T04:01:28.401Z,99310.72
2023-03-11T04:03:58.054Z,99309.19
2023-03-11T04:06:29.454Z,99304.47
2023-03-11T04:08:57.118Z,99301.25
2023-03-11T04:11:27.543Z,99296.34
2023-03-11T04:14:11.210Z,99296.38
2023-03-11T04:16:47.651Z,99300.34
2023-03-11T04:19:31.410Z,99289.38
2023-03-11T04:21:58.382Z,99298.63
2023-03-11T04:24:32.290Z,99293.91
2023-03-11T04:27:08.196Z,99304.84
2023-03-11T04:29:38.546Z,99303.44
2023-03-11T04:32:08.293Z,99316.09
2023-03-11T04:34:43.647Z,99310.44
2023-03-11T04:37:18.311Z,99302.22
2023-03-11T04:40:04.179Z,99301.56
2023-03-11T04:42:40.914Z,99305.81
2023-03-11T04:45:24.879Z,99311.66
2023-03-11T04:47:52.319Z,99316.22
2023-03-11T04:50:19.636Z,99320.47
2023-03-11T04:53:08.697Z,99316.00
2023-03-11T04:58:43.649Z,99310.06
2023-03-11T05:01:13.937Z,99314.22
2023-03-11T05:03:48.134Z,99307.31
2023-03-11T05:06:14.958Z,99297.75
2023-03-11T05:08:42.184Z,99302.78
2023-03-11T05:11:23.806Z,99300.91
2023-03-11T05:13:50.736Z,99307.25
2023-03-11T05:16:26.692Z,99325.28
2023-03-11T05:18:58.745Z,99318.47
2023-03-11T05:24:28.697Z,99307.63
2023-03-11T05:27:11.848Z,99302.53
2023-03-11T05:29:47.204Z,99308.66
2023-03-11T05:32:17.435Z,99301.66
2023-03-11T05:34:49.928Z,99295.53
2023-03-11T05:37:20.050Z,99287.31
2023-03-11T05:40:07.796Z,99284.66
2023-03-11T05:42:42.380Z,99269.34
2023-03-11T05:45:24.622Z,99266.72
2023-03-11T05:47:55.144Z,99270.69
2023-03-11T05:50:25.323Z,99259.38
2023-03-11T05:52:52.217Z,99257.19
2023-03-11T05:55:28.015Z,99253.88
2023-03-11T05:57:55.167Z,99250.56
2023-03-11T06:00:22.954Z,99239.53
2023-03-11T06:02:49.769Z,99214.41
2023-03-11T06:05:21.706Z,99218.94
2023-03-11T06:07:48.632Z,99231.97
2023-03-11T06:10:15.750Z,99248.22
2023-03-11T06:12:42.722Z,99263.31
2023-03-11T06:15:10.389Z,99280.69
2023-03-11T06:17:41.596Z,99296.38
2023-03-11T06:20:11.992Z,99315.44
2023-03-11T06:22:42.976Z,99333.97
2023-03-11T06:25:10.169Z,99326.03
2023-03-11T06:27:51.874Z,99332.09
2023-03-11T06:30:29.044Z,99333.59
2023-03-11T06:32:56.799Z,99337.19
2023-03-11T06:35:23.802Z,99340.81
2023-03-11T06:37:50.613Z,99337.66
2023-03-11T06:40:20.633Z,99348.44
2023-03-11T06:42:50.690Z,99336.03
2023-03-11T06:45:20.181Z,99347.59
2023-03-11T06:47:47.439Z,99330.00
2023-03-11T06:50:14.177Z,99318.94
2023-03-11T06:52:41.071Z,99304.31
2023-03-11T06:55:08.633Z,99284.25
2023-03-11T06:57:41.634Z,99273.56
2023-03-11T07:00:14.859Z,99278.41
2023-03-11T07:02:53.396Z,99277.94
2023-03-11T07:05:21.820Z,99286.06
2023-03-11T07:08:01.141Z,99299.97
2023-03-11T07:10:28.022Z,99304.47
2023-03-11T07:13:11.901Z,99318.69
2023-03-11T07:15:40.012Z,99334.56
2023-03-11T07:18:07.210Z,99347.03
2023-03-11T07:20:38.151Z,99359.69
2023-03-11T07:23:19.384Z,99339.72
2023-03-11T07:25:58.971Z,99344.00
2023-03-11T07:28:34.766Z,99333.78
2023-03-11T07:31:07.360Z,99320.16
2023-03-11T07:33:42.792Z,99331.41
2023-03-11T07:36:17.567Z,99324.78
2023-03-11T07:38:45.329Z,99323.91
2023-03-11T07:41:14.248Z,99325.22
2023-03-11T07:43:42.763Z,99345.34
2023-03-11T07:46:22.607Z,99342.78
2023-03-11T07:48:52.881Z,99351.69
2023-03-11T07:51:40.818Z,99356.69
2023-03-11T07:54:22.134Z,99369.78
2023-03-11T07:56:52.073Z,99368.25
2023-03-11T07:59:33.164Z,99377.19
2023-03-11T08:02:18.681Z,99383.13
2023-03-11T08:04:45.619Z,99394.13
2023-03-11T08:07:26.161Z,99388.69
2023-03-11T08:09:59.301Z,99400.78
2023-03-11T08:12:35.189Z,99393.69
2023-03-11T08:15:08.778Z,99391.03
2023-03-11T08:17:35.869Z,99391.09
2023-03-11T08:20:12.094Z,99391.38
2023-03-11T08:22:55.503Z,99384.31
2023-03-11T08:25:33.729Z,99382.53
2023-03-11T08:28:11.480Z,99389.72
2023-03-11T08:30:45.541Z,99391.88
2023-03-11T08:33:15.785Z,99394.22
2023-03-11T08:35:42.739Z,99394.00
2023-03-11T08:38:10.036Z,99391.88
2023-03-11T08:40:42.267Z,99386.78
2023-03-11T08:43:17.769Z,99389.53
2023-03-11T08:45:46.843Z,99392.19
2023-03-11T08:48:14.009Z,99388.50
2023-03-11T08:50:53.969Z,99392.94
2023-03-11T08:53:22.621Z,99402.69
2023-03-11T08:56:04.975Z,99395.16
2023-03-11T08:59:05.766Z,99395.81
2023-03-11T09:01:35.326Z,99400.31
2023-03-11T09:04:26.384Z,99416.72
2023-03-11T09:06:57.348Z,99396.72
2023-03-11T09:09:29.139Z,99402.50
2023-03-11T09:11:56.077Z,99411.19
2023-03-11T09:14:23.200Z,99412.66
2023-03-11T09:16:50.200Z,99403.81
2023-03-11T09:19:26.364Z,99401.94
2023-03-11T09:21:53.595Z,99404.59
2023-03-11T09:24:20.540Z,99399.19
2023-03-11T09:26:47.682Z,99390.88
2023-03-11T09:29:17.524Z,99388.88
2023-03-11T09:31:44.533Z,99382.72
2023-03-11T09:34:16.136Z,99374.16
2023-03-11T09:36:46.354Z,99370.34
2023-03-11T09:39:35.320Z,99369.38
2023-03-11T09:42:17.856Z,99377.91
2023-03-11T09:45:20.673Z,99377.91
2023-03-11T09:48:09.302Z,99382.16
2023-03-11T09:51:02.786Z,99375.19
2023-03-11T09:53:50.901Z,99371.31
2023-03-11T09:56:26.466Z,99359.66
2023-03-11T09:59:32.601Z,99375.91
2023-03-11T10:02:00.869Z,99361.56
2023-03-11T10:04:58.640Z,99349.88
2023-03-11T10:07:45.433Z,99348.78
2023-03-11T10:10:27.362Z,99349.88
2023-03-11T10:13:17.299Z,99348.59
2023-03-11T10:16:01.434Z,99342.44
2023-03-11T10:19:03.904Z,99333.78
2023-03-11T10:22:05.333Z,99338.22
2023-03-11T10:24:45.940Z,99323.06
2023-03-11T10:27:23.378Z,99339.53
2023-03-11T10:30:06.473Z,99334.81
2023-03-11T10:32:57.954Z,99338.28
2023-03-11T10:35:50.052Z,99351.66
2023-03-11T10:38:56.016Z,99352.56
2023-03-11T10:41:42.480Z,99353.50
2023-03-11T10:44:27.917Z,99357.28
2023-03-11T10:46:57.824Z,99357.28
2023-03-11T10:49:36.396Z,99368.97
2023-03-11T10:52:07.164Z,99367.81
2023-03-11T10:54:52.543Z,99370.00
2023-03-11T10:57:29.922Z,99363.94
2023-03-11T11:00:19.998Z,99364.78
2023-03-11T11:03:06.978Z,99369.69
2023-03-11T11:05:38.236Z,99364.31
2023-03-11T11:08:21.586Z,99370.69
2023-03-11T11:10:53.002Z,99362.41
2023-03-11T11:13:38.666Z,99370.56
2023-03-11T11:16:23.226Z,99370.94
2023-03-11T11:19:02.529Z,99367.72
2023-03-11T11:21:44.208Z,99370.16
2023-03-11T11:24:12.698Z,99374.50
2023-03-11T11:26:43.695Z,99386.00
2023-03-11T11:29:20.239Z,99379.50
2023-03-11T11:31:47.515Z,99370.34
2023-03-11T11:34:34.185Z,99366.88
2023-03-11T11:37:13.735Z,99346.47
2023-03-11T11:39:56.470Z,99364.50
2023-03-11T11:42:36.926Z,99359.44
2023-03-11T11:45:59.021Z,99349.88
2023-03-11T11:49:19.978Z,99357.22
2023-03-11T11:52:27.801Z,99350.28
2023-03-11T11:55:08.515Z,99336.22
2023-03-11T11:57:58.169Z,99330.00
2023-03-11T12:01:30.577Z,99325.50
2023-03-11T12:04:40.661Z,99327.16
2023-03-11T12:07:32.616Z,99326.75
2023-03-11T12:10:33.073Z,99323.97
2023-03-11T12:13:36.254Z,99324.78
2023-03-11T12:16:12.026Z,99338.59
2023-03-11T12:18:47.850Z,99334.34
2023-03-11T12:21:23.983Z,99324.41
2023-03-11T12:24:29.891Z,99322.34
2023-03-11T12:27:02.376Z,99312.41
2023-03-11T12:29:43.717Z,99308.72
2023-03-11T12:32:34.766Z,99306.91
2023-03-11T12:35:11.068Z,99301.97
2023-03-11T12:37:39.110Z,99311.00
2023-03-11T12:40:55.069Z,99300.00
2023-03-11T12:43:56.775Z,99294.66
2023-03-11T12:47:02.392Z,99298.03
2023-03-11T12:49:37.808Z,99291.78
2023-03-11T12:52:30.043Z,99294.25
2023-03-11T12:55:19.168Z,99300.72
2023-03-11T12:57:49.263Z,99302.75
2023-03-11T13:00:50.704Z,99307.63
2023-03-11T13:03:44.944Z,99323.16
2023-03-11T13:06:35.490Z,99306.75
2023-03-11T13:09:10.138Z,99319.25
2023-03-11T13:11:45.576Z,99309.88
2023-03-11T13:14:16.576Z,99320.78
2023-03-11T13:16:44.981Z,99317.19
2023-03-11T13:19:56.061Z,99319.81
2023-03-11T13:23:03.326Z,99320.31
2023-03-11T13:25:48.696Z,99311.09
2023-03-11T13:28:53.610Z,99321.19
2023-03-11T13:31:42.222Z,99314.16
2023-03-11T13:34:37.840Z,99332.63
2023-03-11T13:37:21.924Z,99331.13
2023-03-11T13:40:08.648Z,99325.84
2023-03-11T13:43:04.155Z,99329.72
2023-03-11T13:45:36.791Z,99339.38
2023-03-11T13:48:14.215Z,99331.84
2023-03-11T13:50:50.989Z,99330.38
2023-03-11T13:53:37.216Z,99323.72
2023-03-11T13:56:05.064Z,99330.03
2023-03-11T13:58:43.848Z,99324.94
2023-03-11T14:01:16.833Z,99317.50
2023-03-11T14:03:51.164Z,99323.84
2023-03-11T14:06:34.704Z,99320.00
2023-03-11T14:09:14.810Z,99320.50
2023-03-11T14:11:54.079Z,99321.16
2023-03-11T14:14:48.500Z,99315.09
2023-03-11T14:20:18.684Z,99326.84
2023-03-11T14:23:08.126Z,99329.59
2023-03-11T14:25:44.454Z,99332.13
2023-03-11T14:28:45.177Z,99329.09
2023-03-11T14:31:30.700Z,99336.84
2023-03-11T14:34:07.560Z,99332.69
2023-03-11T14:37:00.128Z,99333.56
2023-03-11T14:39:46.263Z,99332.97
2023-03-11T14:42:42.410Z,99344.34
2023-03-11T14:45:19.946Z,99342.72
2023-03-11T14:48:04.514Z,99341.38
2023-03-11T14:50:37.671Z,99339.53
2023-03-11T14:53:17.669Z,99341.91
2023-03-11T14:56:02.005Z,99340.50
2023-03-11T14:59:06.617Z,99332.84
2023-03-11T15:01:48.859Z,99336.28
2023-03-11T15:04:46.412Z,99338.59
2023-03-11T15:07:19.810Z,99340.38
2023-03-11T15:09:55.667Z,99347.03
2023-03-11T15:12:51.781Z,99354.19
2023-03-11T15:15:32.476Z,99350.13
2023-03-11T15:18:01.642Z,99351.19
2023-03-11T15:20:37.226Z,99354.00
2023-03-11T15:23:31.297Z,99357.00
2023-03-11T15:26:02.640Z,99362.31
2023-03-11T15:28:37.952Z,99366.56
2023-03-11T15:31:22.027Z,99373.03
2023-03-11T15:34:00.794Z,99375.88
2023-03-11T15:37:02.361Z,99383.00
2023-03-11T15:39:32.524Z,99375.38
2023-03-11T15:42:19.932Z,99384.72
2023-03-11T15:45:26.025Z,99386.00
2023-03-11T15:47:55.072Z,99387.81
2023-03-11T15:50:50.576Z,99391.94
2023-03-11T15:53:20.669Z,99395.88
2023-03-11T15:55:51.859Z,99404.09
2023-03-11T15:58:24.893Z,99403.38
2023-03-11T16:00:57.703Z,99401.31
2023-03-11T16:03:31.729Z,99409.19
2023-03-11T16:06:12.076Z,99413.09
2023-03-11T16:08:45.238Z,99423.94
2023-03-11T16:11:15.909Z,99430.06
2023-03-11T16:13:46.192Z,99437.88
2023-03-11T16:16:17.738Z,99440.72
2023-03-11T16:18:44.710Z,99449.63
2023-03-11T16:21:23.514Z,99454.16
2023-03-11T16:23:52.407Z,99453.06
2023-03-11T16:26:19.950Z,99465.28
2023-03-11T16:28:53.799Z,99458.28
2023-03-11T16:31:23.848Z,99471.50
2023-03-11T16:33:50.742Z,99481.09
2023-03-11T16:36:17.774Z,99484.47
2023-03-11T16:38:54.649Z,99488.41
2023-03-11T16:41:21.720Z,99497.47
2023-03-11T16:43:48.587Z,99491.00
2023-03-11T16:46:27.721Z,99498.75
2023-03-11T16:48:55.515Z,99502.91
2023-03-11T16:51:22.399Z,99516.28
2023-03-11T16:53:49.367Z,99524.31
2023-03-11T16:56:16.483Z,99548.31
2023-03-11T16:58:49.656Z,99551.44
2023-03-11T17:01:19.440Z,99565.97
2023-03-11T17:04:04.224Z,99574.25
2023-03-11T17:06:40.790Z,99574.47
2023-03-11T17:09:11.429Z,99581.81
2023-03-11T17:11:38.400Z,99580.63
2023-03-11T17:14:33.471Z,99588.72
2023-03-11T17:17:07.799Z,99592.38
2023-03-11T17:19:58.277Z,99594.66
2023-03-11T17:22:27.226Z,99608.94
2023-03-11T17:24:55.532Z,99607.56
2023-03-11T17:27:22.653Z,99622.63
2023-03-11T17:29:50.931Z,99629.03
2023-03-11T17:32:24.293Z,99631.13
2023-03-11T17:34:51.819Z,99636.34
2023-03-11T17:37:26.626Z,99642.13
2023-03-11T17:39:53.833Z,99650.59
2023-03-11T17:42:27.934Z,99654.94
2023-03-11T17:44:59.807Z,99661.88
2023-03-11T17:47:50.157Z,99664.03
2023-03-11T17:50:27.426Z,99671.06
2023-03-11T17:53:04.076Z,99672.47
2023-03-11T17:55:39.702Z,99684.78
2023-03-11T17:58:07.143Z,99688.69
2023-03-11T18:00:34.116Z,99692.38
2023-03-11T18:03:07.208Z,99696.53
2023-03-11T18:05:34.163Z,99690.66
2023-03-11T18:08:01.021Z,99697.69
2023-03-11T18:10:33.735Z,99698.03
2023-03-11T18:13:00.802Z,99703.91
2023-03-11T18:15:27.663Z,99696.66
2023-03-11T18:18:12.093Z,99701.25
2023-03-11T18:20:41.192Z,99703.00
2023-03-11T18:23:11.480Z,99706.56
2023-03-11T18:25:53.944Z,99703.34
2023-03-11T18:28:31.386Z,99720.72
2023-03-11T18:31:19.203Z,99717.22
2023-03-11T18:33:54.818Z,99719.25
2023-03-11T18:36:30.021Z,99718.59
2023-03-11T18:39:01.657Z,99720.19
2023-03-11T18:41:35.865Z,99724.22
2023-03-11T18:44:11.692Z,99721.47
2023-03-11T18:46:38.844Z,99735.84
2023-03-11T18:49:06.136Z,99727.75
2023-03-11T18:51:41.005Z,99749.28
2023-03-11T18:54:17.789Z,99750.16
2023-03-11T18:56:55.166Z,99752.50
2023-03-11T18:59:38.148Z,99755.72
2023-03-11T19:02:16.888Z,99753.66
2023-03-11T19:04:53.322Z,99755.28
2023-03-11T19:07:20.354Z,99756.50
2023-03-11T19:09:48.885Z,99769.63
2023-03-11T19:12:15.801Z,99757.28
2023-03-11T19:14:51.722Z,99763.88
2023-03-11T19:18:06.178Z,99768.53
2023-03-11T19:20:33.538Z,99774.63
2023-03-11T19:23:02.821Z,99783.97
2023-03-11T19:25:30.697Z,99784.38
2023-03-11T19:27:57.785Z,99778.91
2023-03-11T19:30:25.239Z,99784.88
2023-03-11T19:32:55.239Z,99787.28
2023-03-11T19:35:26.651Z,99783.88
2023-03-11T19:37:59.483Z,99787.34
2023-03-11T19:40:34.374Z,99789.75
2023-03-11T19:43:14.946Z,99791.88
2023-03-11T19:45:53.030Z,99796.34
2023-03-11T19:48:33.363Z,99793.34
2023-03-11T19:54:10.241Z,99799.56
2023-03-11T19:56:37.274Z,99804.38
2023-03-11T19:59:10.626Z,99811.25
2023-03-11T20:01:44.269Z,99819.28
2023-03-11T20:04:11.443Z,99823.16
2023-03-11T20:06:39.590Z,99838.72
2023-03-11T20:09:18.925Z,99838.09
2023-03-11T20:11:46.041Z,99834.03
2023-03-11T20:14:15.177Z,99833.53
2023-03-11T20:16:42.464Z,99836.19
2023-03-11T20:19:30.591Z,99848.34
2023-03-11T20:22:10.261Z,99856.63
2023-03-11T20:27:09.394Z,99875.16
2023-03-11T20:29:41.763Z,99872.66
2023-03-11T20:32:18.998Z,99882.41
2023-03-11T20:34:47.041Z,99882.50
2023-03-11T20:37:22.729Z,99882.84
2023-03-11T20:40:00.567Z,99891.41
2023-03-11T20:42:27.520Z,99897.03
2023-03-11T20:44:55.458Z,99909.00
2023-03-11T20:47:22.578Z,99901.22
2023-03-11T20:49:56.554Z,99911.81
2023-03-11T20:52:27.430Z,99903.34
2023-03-11T20:55:05.039Z,99911.19
2023-03-11T20:57:37.517Z,99927.72
2023-03-11T21:00:26.088Z,99926.25
2023-03-11T21:03:02.644Z,99927.28
2023-03-11T21:05:47.508Z,99933.41
2023-03-11T21:08:23.959Z,99940.06
2023-03-11T21:10:57.870Z,99950.34
2023-03-11T21:13:25.960Z,99948.19
2023-03-11T21:16:02.850Z,99950.16
2023-03-11T21:18:37.005Z,99953.25
2023-03-11T21:21:15.872Z,99957.28
2023-03-11T21:23:59.595Z,99959.22
2023-03-11T21:26:38.004Z,99967.34
2023-03-11T21:29:10.899Z,99965.16
2023-03-11T21:31:43.285Z,99972.88
2023-03-11T21:34:19.548Z,99977.16
2023-03-11T21:36:55.483Z,99986.34
2023-03-11T21:39:34.488Z,99979.72
2023-03-11T21:42:10.036Z,99988.66
2023-03-11T21:44:37.202Z,99981.75
2023-03-11T21:47:12.141Z,99992.69
2023-03-11T21:49:40.825Z,99997.25
2023-03-11T21:52:39.228Z,100000.00
2023-03-11T21:55:13.576Z,100016.31
2023-03-11T21:58:03.425Z,100018.53
2023-03-11T22:00:55.397Z,100019.72
2023-03-11T22:04:00.776Z,100023.78
2023-03-11T22:06:24.242Z,100036.06
2023-03-11T22:08:56.468Z,100037.56
2023-03-11T22:11:53.832Z,100044.41
2023-03-11T22:14:20.836Z,100038.47
2023-03-11T22:16:56.723Z,100037.47
2023-03-11T22:19:49.743Z,100040.88
2023-03-11T22:22:25.186Z,100044.59
2023-03-11T22:25:00.019Z,100051.41
2023-03-11T22:27:27.196Z,100061.03
2023-03-11T22:30:02.706Z,100064.72
2023-03-11T22:32:42.614Z,100059.97
2023-03-11T22:35:32.653Z,100060.25
2023-03-11T22:38:25.593Z,100063.69
2023-03-11T22:40:54.992Z,100072.31
2023-03-11T22:43:24.975Z,100074.41
2023-03-11T22:45:54.857Z,100083.63
2023-03-11T22:48:29.835Z,100097.41
2023-03-11T22:51:03.616Z,100099.03
2023-03-11T22:53:30.604Z,100108.53
2023-03-11T22:56:03.086Z,100118.09
2023-03-11T22:58:29.854Z,100114.16
2023-03-11T23:00:57.849Z,100120.53
2023-03-11T23:03:25.036Z,100125.84
2023-03-11T23:05:52.062Z,100125.03
2023-03-11T23:08:19.109Z,100125.50
2023-03-11T23:10:52.716Z,100130.22
2023-03-11T23:13:21.850Z,100132.88
2023-03-11T23:15:48.879Z,100144.56
2023-03-11T23:18:27.982Z,100152.88
2023-03-11T23:20:58.886Z,100146.25
2023-03-11T23:23:38.202Z,100149.59
2023-03-11T23:26:18.048Z,100157.06
2023-03-11T23:28:55.913Z,100162.00
2023-03-11T23:31:32.220Z,100157.28
2023-03-11T23:33:59.096Z,100171.88
2023-03-11T23:36:46.014Z,100169.72
2023-03-11T23:39:12.796Z,100177.03
2023-03-11T23:41:39.654Z,100182.59
2023-03-11T23:44:12.879Z,100193.41
2023-03-11T23:46:53.104Z,100190.00
2023-03-11T23:49:33.669Z,100197.88
2023-03-11T23:52:07.784Z,100198.88
2023-03-11T23:54:42.199Z,100207.66
2023-03-11T23:57:12.002Z,100214.31
2023-03-11T23:59:38.818Z,100221.16
